Ruddington, United Kingdom
Current Conditions -  °F | °C
As of 6:20 AM on Thursday 29 Jan 2015 (Local Time) from EGNX Reporting Station
Broken Clouds Broken Clouds  
Wind Chill: 23°   Ceiling: 3400
Heat Index: 34°   Visibility: 6mi
Dew Point: 32°   Wind: 17mph
Humidity: 93%   Direction: 230°SW
Pressure: 29.15"   Gusts: NA
Location:  52.89°N, 1.15°W
Report Text: EGNX 290620Z 23015KT 9999 SCT022 BKN034 01/M00 Q0987
Loading
Personal Weather Stations






























Interactive Weather Map New forecast layout! Learn more

10-Day Weather Forecast

Advertisements
Track Severe Weather on mobile